sensor_id;sensor_type;location;lat;lon;timestamp;P1;durP1;ratioP1;P2;durP2;ratioP2
33644;SDS011;19986;48.190;16.366;2022-12-29T05:06:02;55.50;;;51.92;;
33644;SDS011;19986;48.190;16.366;2022-12-29T05:08:28;54.63;;;50.97;;
33644;SDS011;19986;48.190;16.366;2022-12-29T05:10:54;53.38;;;49.92;;
33644;SDS011;19986;48.190;16.366;2022-12-29T05:13:20;53.97;;;50.25;;
33644;SDS011;19986;48.190;16.366;2022-12-29T05:15:50;56.88;;;53.13;;
33644;SDS011;19986;48.190;16.366;2022-12-29T05:18:17;52.53;;;49.03;;
33644;SDS011;19986;48.190;16.366;2022-12-29T05:20:43;56.42;;;52.72;;
33644;SDS011;19986;48.190;16.366;2022-12-29T05:23:10;56.08;;;52.25;;
33644;SDS011;19986;48.190;16.366;2022-12-29T05:25:36;57.10;;;53.10;;
33644;SDS011;19986;48.190;16.366;2022-12-29T05:28:02;54.97;;;51.25;;
33644;SDS011;19986;48.190;16.366;2022-12-29T05:30:28;55.08;;;51.40;;
33644;SDS011;19986;48.190;16.366;2022-12-29T05:32:54;58.00;;;54.05;;
33644;SDS011;19986;48.190;16.366;2022-12-29T05:35:20;56.67;;;52.80;;
33644;SDS011;19986;48.190;16.366;2022-12-29T05:37:45;58.25;;;54.28;;
33644;SDS011;19986;48.190;16.366;2022-12-29T05:40:11;54.92;;;51.10;;
33644;SDS011;19986;48.190;16.366;2022-12-29T05:42:37;55.58;;;51.83;;
33644;SDS011;19986;48.190;16.366;2022-12-29T05:45:03;56.45;;;52.42;;
33644;SDS011;19986;48.190;16.366;2022-12-29T05:47:32;55.72;;;51.92;;
33644;SDS011;19986;48.190;16.366;2022-12-29T05:49:58;56.60;;;52.88;;
33644;SDS011;19986;48.190;16.366;2022-12-29T05:52:24;53.85;;;50.08;;
33644;SDS011;19986;48.190;16.366;2022-12-29T05:54:50;58.10;;;54.20;;
33644;SDS011;19986;48.190;16.366;2022-12-29T05:57:16;54.45;;;50.63;;
33644;SDS011;19986;48.190;16.366;2022-12-29T05:59:42;55.42;;;51.70;;
33644;SDS011;19986;48.190;16.366;2022-12-29T06:02:08;56.70;;;52.70;;
33644;SDS011;19986;48.190;16.366;2022-12-29T06:04:35;57.63;;;53.53;;
33644;SDS011;19986;48.190;16.366;2022-12-29T06:07:01;55.85;;;52.05;;
33644;SDS011;19986;48.190;16.366;2022-12-29T06:09:27;54.97;;;51.33;;
33644;SDS011;19986;48.190;16.366;2022-12-29T06:11:53;55.50;;;51.60;;
33644;SDS011;19986;48.190;16.366;2022-12-29T06:14:19;56.45;;;52.65;;
33644;SDS011;19986;48.190;16.366;2022-12-29T06:16:45;56.35;;;52.47;;
33644;SDS011;19986;48.190;16.366;2022-12-29T06:19:11;56.28;;;52.58;;
33644;SDS011;19986;48.190;16.366;2022-12-29T06:21:37;58.05;;;54.05;;
33644;SDS011;19986;48.190;16.366;2022-12-29T06:24:03;55.47;;;51.65;;
33644;SDS011;19986;48.190;16.366;2022-12-29T06:26:30;54.95;;;51.35;;
33644;SDS011;19986;48.190;16.366;2022-12-29T06:28:56;57.85;;;53.85;;
33644;SDS011;19986;48.190;16.366;2022-12-29T06:31:22;58.75;;;54.35;;
33644;SDS011;19986;48.190;16.366;2022-12-29T06:33:48;59.05;;;55.10;;
33644;SDS011;19986;48.190;16.366;2022-12-29T06:36:14;56.38;;;52.35;;
33644;SDS011;19986;48.190;16.366;2022-12-29T06:38:40;55.50;;;51.50;;
33644;SDS011;19986;48.190;16.366;2022-12-29T06:41:06;57.28;;;52.95;;
33644;SDS011;19986;48.190;16.366;2022-12-29T06:43:32;62.58;;;57.67;;
33644;SDS011;19986;48.190;16.366;2022-12-29T06:45:58;60.58;;;55.80;;
33644;SDS011;19986;48.190;16.366;2022-12-29T06:48:24;62.33;;;57.53;;
33644;SDS011;19986;48.190;16.366;2022-12-29T06:50:50;65.55;;;59.90;;
33644;SDS011;19986;48.190;16.366;2022-12-29T06:53:16;64.43;;;59.33;;
33644;SDS011;19986;48.190;16.366;2022-12-29T06:55:42;63.33;;;57.97;;
33644;SDS011;19986;48.190;16.366;2022-12-29T06:58:08;61.60;;;56.35;;
33644;SDS011;19986;48.190;16.366;2022-12-29T07:00:34;64.32;;;59.17;;
33644;SDS011;19986;48.190;16.366;2022-12-29T07:03:00;64.35;;;58.95;;
33644;SDS011;19986;48.190;16.366;2022-12-29T07:05:26;67.90;;;62.10;;
33644;SDS011;19986;48.190;16.366;2022-12-29T07:07:53;68.07;;;62.33;;
33644;SDS011;19986;48.190;16.366;2022-12-29T07:10:20;67.93;;;62.38;;
33644;SDS011;19986;48.190;16.366;2022-12-29T07:12:46;65.45;;;60.03;;
33644;SDS011;19986;48.190;16.366;2022-12-29T07:15:12;66.50;;;61.10;;
33644;SDS011;19986;48.190;16.366;2022-12-29T07:17:38;64.28;;;58.92;;
33644;SDS011;19986;48.190;16.366;2022-12-29T07:20:04;64.10;;;59.17;;
33644;SDS011;19986;48.190;16.366;2022-12-29T07:22:30;62.25;;;57.15;;
33644;SDS011;19986;48.190;16.366;2022-12-29T07:24:56;63.83;;;58.47;;
33644;SDS011;19986;48.190;16.366;2022-12-29T07:27:22;67.18;;;61.40;;
33644;SDS011;19986;48.190;16.366;2022-12-29T07:29:48;63.03;;;57.70;;
33644;SDS011;19986;48.190;16.366;2022-12-29T07:32:14;64.45;;;58.80;;
33644;SDS011;19986;48.190;16.366;2022-12-29T07:34:40;64.15;;;58.38;;
33644;SDS011;19986;48.190;16.366;2022-12-29T07:37:06;63.55;;;57.60;;
33644;SDS011;19986;48.190;16.366;2022-12-29T07:39:32;66.30;;;60.20;;
33644;SDS011;19986;48.190;16.366;2022-12-29T07:41:57;70.00;;;63.88;;
33644;SDS011;19986;48.190;16.366;2022-12-29T07:44:23;68.28;;;62.00;;
33644;SDS011;19986;48.190;16.366;2022-12-29T07:46:49;68.03;;;62.13;;
33644;SDS011;19986;48.190;16.366;2022-12-29T07:49:15;67.45;;;61.40;;
33644;SDS011;19986;48.190;16.366;2022-12-29T07:51:41;64.00;;;58.17;;
33644;SDS011;19986;48.190;16.366;2022-12-29T07:54:08;65.88;;;60.05;;
33644;SDS011;19986;48.190;16.366;2022-12-29T07:56:34;65.35;;;59.53;;
33644;SDS011;19986;48.190;16.366;2022-12-29T07:59:00;65.38;;;59.55;;
33644;SDS011;19986;48.190;16.366;2022-12-29T08:01:26;63.97;;;58.38;;
33644;SDS011;19986;48.190;16.366;2022-12-29T08:03:51;65.85;;;60.05;;
33644;SDS011;19986;48.190;16.366;2022-12-29T08:06:17;70.10;;;63.53;;
33644;SDS011;19986;48.190;16.366;2022-12-29T08:08:43;68.00;;;61.65;;
33644;SDS011;19986;48.190;16.366;2022-12-29T08:11:09;67.40;;;61.30;;
33644;SDS011;19986;48.190;16.366;2022-12-29T08:13:35;66.57;;;60.33;;
33644;SDS011;19986;48.190;16.366;2022-12-29T08:16:01;74.03;;;66.97;;
33644;SDS011;19986;48.190;16.366;2022-12-29T08:18:27;70.25;;;63.78;;
33644;SDS011;19986;48.190;16.366;2022-12-29T08:20:52;67.95;;;61.45;;
33644;SDS011;19986;48.190;16.366;2022-12-29T08:23:18;70.43;;;63.83;;
33644;SDS011;19986;48.190;16.366;2022-12-29T08:25:44;68.80;;;62.05;;
33644;SDS011;19986;48.190;16.366;2022-12-29T08:28:12;68.80;;;62.22;;
33644;SDS011;19986;48.190;16.366;2022-12-29T08:30:38;70.43;;;63.92;;
33644;SDS011;19986;48.190;16.366;2022-12-29T08:33:04;67.70;;;61.58;;
33644;SDS011;19986;48.190;16.366;2022-12-29T08:35:30;69.20;;;62.80;;
33644;SDS011;19986;48.190;16.366;2022-12-29T08:37:55;67.45;;;59.15;;
33644;SDS011;19986;48.190;16.366;2022-12-29T08:40:21;71.20;;;64.43;;
33644;SDS011;19986;48.190;16.366;2022-12-29T08:42:47;71.70;;;65.03;;
33644;SDS011;19986;48.190;16.366;2022-12-29T08:45:13;71.05;;;64.32;;
33644;SDS011;19986;48.190;16.366;2022-12-29T08:47:39;69.15;;;62.60;;
33644;SDS011;19986;48.190;16.366;2022-12-29T08:50:05;71.45;;;64.35;;
33644;SDS011;19986;48.190;16.366;2022-12-29T08:52:31;73.43;;;66.18;;
33644;SDS011;19986;48.190;16.366;2022-12-29T08:54:57;67.88;;;61.40;;
33644;SDS011;19986;48.190;16.366;2022-12-29T08:57:23;71.40;;;64.78;;
33644;SDS011;19986;48.190;16.366;2022-12-29T08:59:50;68.95;;;62.72;;
33644;SDS011;19986;48.190;16.366;2022-12-29T09:02:16;70.80;;;64.10;;
33644;SDS011;19986;48.190;16.366;2022-12-29T09:04:42;70.07;;;63.28;;
33644;SDS011;19986;48.190;16.366;2022-12-29T09:07:07;69.00;;;62.42;;
33644;SDS011;19986;48.190;16.366;2022-12-29T09:09:33;69.40;;;62.38;;
33644;SDS011;19986;48.190;16.366;2022-12-29T09:11:59;70.50;;;64.15;;
33644;SDS011;19986;48.190;16.366;2022-12-29T09:14:25;70.32;;;63.88;;
33644;SDS011;19986;48.190;16.366;2022-12-29T09:16:51;67.40;;;61.03;;
33644;SDS011;19986;48.190;16.366;2022-12-29T09:19:36;68.53;;;61.38;;
33644;SDS011;19986;48.190;16.366;2022-12-29T09:22:02;69.57;;;62.88;;
33644;SDS011;19986;48.190;16.366;2022-12-29T09:24:28;69.00;;;62.67;;
33644;SDS011;19986;48.190;16.366;2022-12-29T09:26:55;70.78;;;64.40;;
33644;SDS011;19986;48.190;16.366;2022-12-29T09:29:21;70.00;;;63.63;;
33644;SDS011;19986;48.190;16.366;2022-12-29T09:31:47;68.68;;;62.72;;
33644;SDS011;19986;48.190;16.366;2022-12-29T09:34:13;63.17;;;57.55;;
33644;SDS011;19986;48.190;16.366;2022-12-29T09:36:38;63.03;;;57.67;;
33644;SDS011;19986;48.190;16.366;2022-12-29T09:39:11;62.30;;;57.13;;
33644;SDS011;19986;48.190;16.366;2022-12-29T09:47:41;68.88;;;62.55;;
33644;SDS011;19986;48.190;16.366;2022-12-29T09:55:53;66.65;;;60.05;;
33644;SDS011;19986;48.190;16.366;2022-12-29T09:58:24;68.43;;;62.25;;
33644;SDS011;19986;48.190;16.366;2022-12-29T10:01:06;69.47;;;63.55;;
33644;SDS011;19986;48.190;16.366;2022-12-29T10:03:46;69.97;;;63.53;;
33644;SDS011;19986;48.190;16.366;2022-12-29T10:06:21;70.28;;;63.65;;
33644;SDS011;19986;48.190;16.366;2022-12-29T10:11:43;72.28;;;65.25;;
33644;SDS011;19986;48.190;16.366;2022-12-29T10:14:24;71.50;;;64.63;;
33644;SDS011;19986;48.190;16.366;2022-12-29T10:23:01;72.55;;;65.80;;
33644;SDS011;19986;48.190;16.366;2022-12-29T10:25:31;72.25;;;65.63;;
33644;SDS011;19986;48.190;16.366;2022-12-29T10:28:03;70.93;;;64.63;;
33644;SDS011;19986;48.190;16.366;2022-12-29T10:30:36;72.20;;;65.32;;
33644;SDS011;19986;48.190;16.366;2022-12-29T10:33:04;72.70;;;65.88;;
33644;SDS011;19986;48.190;16.366;2022-12-29T10:35:37;72.15;;;65.47;;
33644;SDS011;19986;48.190;16.366;2022-12-29T10:38:25;73.72;;;67.30;;
33644;SDS011;19986;48.190;16.366;2022-12-29T10:43:39;69.78;;;63.63;;
33644;SDS011;19986;48.190;16.366;2022-12-29T10:46:12;70.65;;;64.38;;
33644;SDS011;19986;48.190;16.366;2022-12-29T10:48:43;69.45;;;63.60;;
33644;SDS011;19986;48.190;16.366;2022-12-29T10:51:15;69.32;;;63.08;;
33644;SDS011;19986;48.190;16.366;2022-12-29T10:53:53;72.10;;;65.57;;
33644;SDS011;19986;48.190;16.366;2022-12-29T10:59:19;68.45;;;62.30;;
33644;SDS011;19986;48.190;16.366;2022-12-29T11:01:58;71.53;;;65.28;;
33644;SDS011;19986;48.190;16.366;2022-12-29T11:07:18;70.53;;;64.05;;
33644;SDS011;19986;48.190;16.366;2022-12-29T11:09:45;71.15;;;64.93;;
33644;SDS011;19986;48.190;16.366;2022-12-29T11:15:01;70.90;;;64.22;;
33644;SDS011;19986;48.190;16.366;2022-12-29T11:17:28;73.70;;;66.93;;
33644;SDS011;19986;48.190;16.366;2022-12-29T11:19:53;70.25;;;63.58;;
33644;SDS011;19986;48.190;16.366;2022-12-29T11:22:27;75.00;;;68.10;;
33644;SDS011;19986;48.190;16.366;2022-12-29T11:24:54;75.38;;;68.13;;
33644;SDS011;19986;48.190;16.366;2022-12-29T11:27:29;76.95;;;70.05;;
33644;SDS011;19986;48.190;16.366;2022-12-29T11:29:55;75.18;;;67.97;;
33644;SDS011;19986;48.190;16.366;2022-12-29T11:32:22;78.00;;;70.95;;
33644;SDS011;19986;48.190;16.366;2022-12-29T11:34:50;78.90;;;71.55;;
33644;SDS011;19986;48.190;16.366;2022-12-29T11:37:30;89.85;;;80.22;;
33644;SDS011;19986;48.190;16.366;2022-12-29T11:42:55;77.15;;;69.88;;
33644;SDS011;19986;48.190;16.366;2022-12-29T11:45:29;83.55;;;75.00;;
33644;SDS011;19986;48.190;16.366;2022-12-29T11:48:07;81.68;;;72.97;;
33644;SDS011;19986;48.190;16.366;2022-12-29T11:50:39;81.85;;;73.35;;
33644;SDS011;19986;48.190;16.366;2022-12-29T11:55:48;75.45;;;68.47;;
33644;SDS011;19986;48.190;16.366;2022-12-29T11:58:30;74.65;;;67.88;;
33644;SDS011;19986;48.190;16.366;2022-12-29T12:01:04;80.88;;;72.72;;
33644;SDS011;19986;48.190;16.366;2022-12-29T12:03:35;85.28;;;75.72;;
33644;SDS011;19986;48.190;16.366;2022-12-29T12:06:05;77.65;;;70.15;;
33644;SDS011;19986;48.190;16.366;2022-12-29T12:08:36;71.28;;;64.15;;
33644;SDS011;19986;48.190;16.366;2022-12-29T12:11:11;74.90;;;67.78;;
33644;SDS011;19986;48.190;16.366;2022-12-29T12:16:39;74.72;;;67.88;;
33644;SDS011;19986;48.190;16.366;2022-12-29T12:21:41;78.00;;;70.45;;
33644;SDS011;19986;48.190;16.366;2022-12-29T12:24:15;79.22;;;71.53;;
33644;SDS011;19986;48.190;16.366;2022-12-29T12:27:01;76.88;;;69.28;;
33644;SDS011;19986;48.190;16.366;2022-12-29T12:29:50;77.82;;;70.70;;
33644;SDS011;19986;48.190;16.366;2022-12-29T12:35:14;73.10;;;66.28;;
33644;SDS011;19986;48.190;16.366;2022-12-29T12:58:59;78.97;;;71.72;;
33644;SDS011;19986;48.190;16.366;2022-12-29T13:16:20;76.80;;;69.70;;
33644;SDS011;19986;48.190;16.366;2022-12-29T13:27:16;76.72;;;69.20;;
33644;SDS011;19986;48.190;16.366;2022-12-29T13:38:02;80.22;;;72.70;;
33644;SDS011;19986;48.190;16.366;2022-12-29T13:40:38;76.53;;;69.30;;
33644;SDS011;19986;48.190;16.366;2022-12-29T13:43:08;77.20;;;69.97;;
33644;SDS011;19986;48.190;16.366;2022-12-29T13:45:35;77.00;;;69.72;;
33644;SDS011;19986;48.190;16.366;2022-12-29T13:48:03;76.35;;;69.03;;
33644;SDS011;19986;48.190;16.366;2022-12-29T13:50:42;77.18;;;70.32;;
33644;SDS011;19986;48.190;16.366;2022-12-29T14:01:40;77.32;;;70.18;;
33644;SDS011;19986;48.190;16.366;2022-12-29T14:04:29;78.78;;;71.10;;
33644;SDS011;19986;48.190;16.366;2022-12-29T14:09:34;76.00;;;68.95;;
33644;SDS011;19986;48.190;16.366;2022-12-29T14:15:05;72.28;;;65.25;;
33644;SDS011;19986;48.190;16.366;2022-12-29T14:17:40;78.90;;;71.57;;
33644;SDS011;19986;48.190;16.366;2022-12-29T14:20:20;75.35;;;68.10;;
33644;SDS011;19986;48.190;16.366;2022-12-29T14:22:58;80.20;;;72.68;;
33644;SDS011;19986;48.190;16.366;2022-12-29T14:31:05;81.80;;;74.10;;
33644;SDS011;19986;48.190;16.366;2022-12-29T14:36:58;77.90;;;70.35;;
33644;SDS011;19986;48.190;16.366;2022-12-29T14:39:38;76.68;;;69.53;;
33644;SDS011;19986;48.190;16.366;2022-12-29T14:47:39;76.30;;;69.03;;
33644;SDS011;19986;48.190;16.366;2022-12-29T14:53:02;76.88;;;69.68;;
33644;SDS011;19986;48.190;16.366;2022-12-29T14:58:32;77.43;;;69.88;;
33644;SDS011;19986;48.190;16.366;2022-12-29T15:06:52;82.18;;;74.38;;
33644;SDS011;19986;48.190;16.366;2022-12-29T15:19:53;81.88;;;73.90;;
33644;SDS011;19986;48.190;16.366;2022-12-29T15:22:21;76.53;;;68.95;;
33644;SDS011;19986;48.190;16.366;2022-12-29T15:24:48;79.28;;;72.07;;
33644;SDS011;19986;48.190;16.366;2022-12-29T15:27:19;76.68;;;69.28;;
33644;SDS011;19986;48.190;16.366;2022-12-29T15:29:57;80.82;;;72.97;;
33644;SDS011;19986;48.190;16.366;2022-12-29T15:32:27;82.20;;;74.45;;
33644;SDS011;19986;48.190;16.366;2022-12-29T15:34:55;82.18;;;74.25;;
33644;SDS011;19986;48.190;16.366;2022-12-29T15:37:26;82.72;;;74.78;;
33644;SDS011;19986;48.190;16.366;2022-12-29T15:39:55;81.22;;;72.97;;
33644;SDS011;19986;48.190;16.366;2022-12-29T15:45:17;80.53;;;72.68;;
33644;SDS011;19986;48.190;16.366;2022-12-29T15:47:44;79.43;;;71.85;;
33644;SDS011;19986;48.190;16.366;2022-12-29T15:52:42;77.28;;;69.75;;
33644;SDS011;19986;48.190;16.366;2022-12-29T15:55:18;77.40;;;69.80;;
33644;SDS011;19986;48.190;16.366;2022-12-29T15:57:57;78.07;;;70.55;;
33644;SDS011;19986;48.190;16.366;2022-12-29T16:00:29;79.50;;;71.75;;
33644;SDS011;19986;48.190;16.366;2022-12-29T16:02:58;78.05;;;70.65;;
33644;SDS011;19986;48.190;16.366;2022-12-29T16:05:33;82.75;;;74.90;;
33644;SDS011;19986;48.190;16.366;2022-12-29T16:08:01;82.20;;;74.40;;
33644;SDS011;19986;48.190;16.366;2022-12-29T16:10:36;78.60;;;70.97;;
33644;SDS011;19986;48.190;16.366;2022-12-29T16:15:46;77.40;;;70.22;;
33644;SDS011;19986;48.190;16.366;2022-12-29T16:18:22;79.47;;;72.28;;
33644;SDS011;19986;48.190;16.366;2022-12-29T16:20:51;83.93;;;76.38;;
33644;SDS011;19986;48.190;16.366;2022-12-29T16:23:19;74.97;;;68.05;;
33644;SDS011;19986;48.190;16.366;2022-12-29T16:25:51;76.60;;;69.63;;
33644;SDS011;19986;48.190;16.366;2022-12-29T16:28:23;74.25;;;67.38;;
33644;SDS011;19986;48.190;16.366;2022-12-29T16:31:05;76.00;;;69.22;;
33644;SDS011;19986;48.190;16.366;2022-12-29T16:33:45;77.10;;;70.32;;
33644;SDS011;19986;48.190;16.366;2022-12-29T16:36:23;73.32;;;67.00;;
33644;SDS011;19986;48.190;16.366;2022-12-29T16:39:02;76.20;;;69.47;;
33644;SDS011;19986;48.190;16.366;2022-12-29T16:41:36;75.53;;;68.97;;
33644;SDS011;19986;48.190;16.366;2022-12-29T16:44:12;74.22;;;67.78;;
33644;SDS011;19986;48.190;16.366;2022-12-29T16:49:31;73.65;;;67.43;;
33644;SDS011;19986;48.190;16.366;2022-12-29T16:51:58;73.65;;;67.45;;
33644;SDS011;19986;48.190;16.366;2022-12-29T16:54:31;69.05;;;62.75;;
33644;SDS011;19986;48.190;16.366;2022-12-29T16:57:01;69.20;;;63.45;;
33644;SDS011;19986;48.190;16.366;2022-12-29T16:59:38;70.60;;;64.45;;
33644;SDS011;19986;48.190;16.366;2022-12-29T17:02:16;70.32;;;64.22;;
33644;SDS011;19986;48.190;16.366;2022-12-29T17:04:45;75.25;;;69.00;;
33644;SDS011;19986;48.190;16.366;2022-12-29T17:07:17;72.60;;;66.78;;
33644;SDS011;19986;48.190;16.366;2022-12-29T17:09:45;71.43;;;65.63;;
33644;SDS011;19986;48.190;16.366;2022-12-29T17:12:16;72.10;;;65.80;;
33644;SDS011;19986;48.190;16.366;2022-12-29T17:14:47;73.70;;;67.35;;
33644;SDS011;19986;48.190;16.366;2022-12-29T17:17:29;76.03;;;69.35;;
33644;SDS011;19986;48.190;16.366;2022-12-29T17:20:04;70.47;;;64.35;;
33644;SDS011;19986;48.190;16.366;2022-12-29T17:22:31;74.30;;;67.88;;
33644;SDS011;19986;48.190;16.366;2022-12-29T17:24:58;73.05;;;66.85;;
33644;SDS011;19986;48.190;16.366;2022-12-29T17:29:58;73.45;;;67.30;;
33644;SDS011;19986;48.190;16.366;2022-12-29T17:32:36;74.47;;;68.18;;
33644;SDS011;19986;48.190;16.366;2022-12-29T17:35:02;73.55;;;67.05;;
33644;SDS011;19986;48.190;16.366;2022-12-29T17:37:30;73.57;;;67.15;;
33644;SDS011;19986;48.190;16.366;2022-12-29T17:40:00;72.72;;;66.38;;
33644;SDS011;19986;48.190;16.366;2022-12-29T17:42:27;77.00;;;69.88;;
33644;SDS011;19986;48.190;16.366;2022-12-29T17:44:54;75.47;;;69.10;;
33644;SDS011;19986;48.190;16.366;2022-12-29T17:47:20;78.22;;;71.50;;
33644;SDS011;19986;48.190;16.366;2022-12-29T17:49:46;75.53;;;68.63;;
33644;SDS011;19986;48.190;16.366;2022-12-29T17:52:12;71.75;;;65.63;;
33644;SDS011;19986;48.190;16.366;2022-12-29T17:54:45;73.05;;;66.72;;
33644;SDS011;19986;48.190;16.366;2022-12-29T17:57:15;74.68;;;68.30;;
33644;SDS011;19986;48.190;16.366;2022-12-29T17:59:42;70.97;;;64.93;;
33644;SDS011;19986;48.190;16.366;2022-12-29T18:02:20;72.20;;;65.80;;
33644;SDS011;19986;48.190;16.366;2022-12-29T18:04:49;75.45;;;68.85;;
33644;SDS011;19986;48.190;16.366;2022-12-29T18:07:15;74.70;;;67.88;;
33644;SDS011;19986;48.190;16.366;2022-12-29T18:09:41;75.53;;;68.90;;
33644;SDS011;19986;48.190;16.366;2022-12-29T18:12:12;75.53;;;69.03;;
33644;SDS011;19986;48.190;16.366;2022-12-29T18:14:53;72.70;;;66.22;;
33644;SDS011;19986;48.190;16.366;2022-12-29T18:17:19;78.43;;;71.72;;
33644;SDS011;19986;48.190;16.366;2022-12-29T18:19:45;74.10;;;67.70;;
33644;SDS011;19986;48.190;16.366;2022-12-29T18:22:11;74.55;;;68.18;;
33644;SDS011;19986;48.190;16.366;2022-12-29T18:24:37;70.03;;;64.13;;
33644;SDS011;19986;48.190;16.366;2022-12-29T18:27:12;74.53;;;67.97;;
33644;SDS011;19986;48.190;16.366;2022-12-29T18:29:40;73.22;;;66.95;;
33644;SDS011;19986;48.190;16.366;2022-12-29T18:32:11;78.40;;;71.65;;
33644;SDS011;19986;48.190;16.366;2022-12-29T18:34:38;72.90;;;66.72;;
33644;SDS011;19986;48.190;16.366;2022-12-29T18:37:05;72.65;;;66.30;;
33644;SDS011;19986;48.190;16.366;2022-12-29T18:39:31;73.07;;;66.65;;
33644;SDS011;19986;48.190;16.366;2022-12-29T18:41:57;72.20;;;65.97;;
33644;SDS011;19986;48.190;16.366;2022-12-29T18:44:23;74.82;;;67.85;;
33644;SDS011;19986;48.190;16.366;2022-12-29T18:46:49;73.47;;;66.88;;
33644;SDS011;19986;48.190;16.366;2022-12-29T18:49:16;73.53;;;66.95;;
33644;SDS011;19986;48.190;16.366;2022-12-29T18:51:42;75.18;;;68.63;;
33644;SDS011;19986;48.190;16.366;2022-12-29T18:54:13;72.90;;;66.47;;
33644;SDS011;19986;48.190;16.366;2022-12-29T18:56:55;77.45;;;70.75;;
33644;SDS011;19986;48.190;16.366;2022-12-29T18:59:21;75.30;;;68.70;;
33644;SDS011;19986;48.190;16.366;2022-12-29T19:01:47;78.10;;;71.43;;
33644;SDS011;19986;48.190;16.366;2022-12-29T19:04:13;76.18;;;69.47;;
33644;SDS011;19986;48.190;16.366;2022-12-29T19:06:39;73.80;;;67.38;;
33644;SDS011;19986;48.190;16.366;2022-12-29T19:09:05;74.28;;;68.13;;
33644;SDS011;19986;48.190;16.366;2022-12-29T19:11:32;72.50;;;66.25;;
33644;SDS011;19986;48.190;16.366;2022-12-29T19:13:58;71.60;;;65.50;;
33644;SDS011;19986;48.190;16.366;2022-12-29T19:16:24;73.03;;;66.95;;
33644;SDS011;19986;48.190;16.366;2022-12-29T19:18:51;72.25;;;65.95;;
33644;SDS011;19986;48.190;16.366;2022-12-29T19:21:20;73.55;;;67.00;;
33644;SDS011;19986;48.190;16.366;2022-12-29T19:23:46;78.13;;;71.82;;
33644;SDS011;19986;48.190;16.366;2022-12-29T19:26:33;73.95;;;67.43;;
33644;SDS011;19986;48.190;16.366;2022-12-29T19:29:00;75.15;;;68.35;;
33644;SDS011;19986;48.190;16.366;2022-12-29T19:31:27;76.07;;;69.68;;
33644;SDS011;19986;48.190;16.366;2022-12-29T19:33:53;77.05;;;70.30;;
33644;SDS011;19986;48.190;16.366;2022-12-29T19:36:19;76.90;;;70.50;;
33644;SDS011;19986;48.190;16.366;2022-12-29T19:38:46;77.50;;;70.60;;
33644;SDS011;19986;48.190;16.366;2022-12-29T19:41:12;77.82;;;71.10;;
33644;SDS011;19986;48.190;16.366;2022-12-29T19:43:39;78.22;;;71.18;;
33644;SDS011;19986;48.190;16.366;2022-12-29T19:46:06;78.40;;;71.40;;
33644;SDS011;19986;48.190;16.366;2022-12-29T19:48:32;79.30;;;72.45;;
33644;SDS011;19986;48.190;16.366;2022-12-29T19:51:05;78.82;;;71.35;;
33644;SDS011;19986;48.190;16.366;2022-12-29T19:53:33;76.78;;;70.28;;
33644;SDS011;19986;48.190;16.366;2022-12-29T19:56:03;78.68;;;71.78;;
33644;SDS011;19986;48.190;16.366;2022-12-29T19:58:31;76.93;;;70.38;;
33644;SDS011;19986;48.190;16.366;2022-12-29T20:01:03;74.68;;;68.10;;
33644;SDS011;19986;48.190;16.366;2022-12-29T20:03:37;77.40;;;71.03;;
33644;SDS011;19986;48.190;16.366;2022-12-29T20:06:07;75.32;;;68.43;;
33644;SDS011;19986;48.190;16.366;2022-12-29T20:08:34;79.65;;;72.82;;
33644;SDS011;19986;48.190;16.366;2022-12-29T20:11:09;77.80;;;71.25;;
33644;SDS011;19986;48.190;16.366;2022-12-29T20:13:37;72.97;;;66.78;;
33644;SDS011;19986;48.190;16.366;2022-12-29T20:16:05;74.63;;;68.15;;
33644;SDS011;19986;48.190;16.366;2022-12-29T20:18:33;76.82;;;70.40;;
33644;SDS011;19986;48.190;16.366;2022-12-29T20:21:03;74.72;;;68.53;;
33644;SDS011;19986;48.190;16.366;2022-12-29T20:23:31;73.55;;;67.55;;
33644;SDS011;19986;48.190;16.366;2022-12-29T20:25:58;70.45;;;64.28;;
33644;SDS011;19986;48.190;16.366;2022-12-29T20:28:25;70.68;;;65.00;;
33644;SDS011;19986;48.190;16.366;2022-12-29T20:30:57;74.10;;;67.80;;
33644;SDS011;19986;48.190;16.366;2022-12-29T20:33:30;71.18;;;65.18;;
33644;SDS011;19986;48.190;16.366;2022-12-29T20:36:03;69.60;;;63.67;;
33644;SDS011;19986;48.190;16.366;2022-12-29T20:38:37;71.22;;;65.22;;
33644;SDS011;19986;48.190;16.366;2022-12-29T20:41:03;71.38;;;65.28;;
33644;SDS011;19986;48.190;16.366;2022-12-29T20:43:29;74.82;;;68.65;;
33644;SDS011;19986;48.190;16.366;2022-12-29T20:45:55;72.68;;;66.50;;
33644;SDS011;19986;48.190;16.366;2022-12-29T20:48:21;76.43;;;69.93;;
33644;SDS011;19986;48.190;16.366;2022-12-29T20:50:47;76.15;;;69.88;;
33644;SDS011;19986;48.190;16.366;2022-12-29T20:53:13;73.93;;;67.80;;
33644;SDS011;19986;48.190;16.366;2022-12-29T20:55:39;73.65;;;67.43;;
33644;SDS011;19986;48.190;16.366;2022-12-29T20:58:04;72.25;;;65.60;;
